Time;durP1;ratioP1;P1;durP2;ratioP2;P2;SDS_P1;SDS_P2;PMS_P1;PMS_P2;Temp;Humidity;BMP_temperature;BMP_pressure;BME280_temperature;BME280_humidity;BME280_pressure;Samples;Min_cycle;Max_cycle;Signal;HPM_P1;HPM_P2
2023/09/10 00:01:09;;;;;;;4.55;4.18;;;;;;;;;;5023957;28;20661;-59
2023/09/10 00:03:37;;;;;;;4.20;3.88;;;;;;;;;;5025840;28;20049;-59
2023/09/10 00:06:05;;;;;;;4.88;4.47;;;;;;;;;;5024745;28;20041;-59
2023/09/10 00:08:31;;;;;;;4.57;4.22;;;;;;;;;;5023817;28;20045;-59
2023/09/10 00:10:57;;;;;;;4.25;3.95;;;;;;;;;;5022835;28;20073;-59
2023/09/10 00:13:24;;;;;;;4.88;4.47;;;;;;;;;;5023921;28;20544;-60
2023/09/10 00:15:51;;;;;;;4.95;4.55;;;;;;;;;;5023844;28;20033;-59
2023/09/10 00:18:17;;;;;;;4.30;3.97;;;;;;;;;;5026883;28;20539;-59
2023/09/10 00:20:43;;;;;;;4.47;4.10;;;;;;;;;;5032025;28;20041;-59
2023/09/10 00:23:09;;;;;;;3.95;3.65;;;;;;;;;;5030911;28;20045;-59
2023/09/10 00:25:35;;;;;;;3.75;3.45;;;;;;;;;;5031338;28;20543;-60
2023/09/10 00:28:01;;;;;;;3.20;2.90;;;;;;;;;;5031659;28;20053;-59
2023/09/10 00:30:28;;;;;;;2.88;2.67;;;;;;;;;;5030624;28;20116;-59
2023/09/10 00:32:54;;;;;;;2.47;2.28;;;;;;;;;;5029862;28;20718;-59
2023/09/10 00:35:20;;;;;;;2.65;2.45;;;;;;;;;;5030738;28;20131;-60
2023/09/10 00:37:46;;;;;;;2.63;2.42;;;;;;;;;;5030998;28;20033;-59
2023/09/10 00:40:12;;;;;;;2.53;2.38;;;;;;;;;;5031284;28;20512;-59
2023/09/10 00:42:39;;;;;;;2.42;2.30;;;;;;;;;;5029745;28;20041;-59
2023/09/10 00:45:06;;;;;;;2.45;2.25;;;;;;;;;;5030637;28;20111;-60
2023/09/10 00:47:32;;;;;;;2.55;2.35;;;;;;;;;;5029102;28;20066;-59
2023/09/10 00:49:59;;;;;;;2.90;2.70;;;;;;;;;;5028780;28;20044;-59
2023/09/10 00:52:26;;;;;;;3.55;3.25;;;;;;;;;;5029809;28;20051;-59
2023/09/10 00:54:52;;;;;;;3.40;3.20;;;;;;;;;;5030936;28;20384;-59
2023/09/10 00:57:18;;;;;;;3.38;3.15;;;;;;;;;;5030345;28;20084;-59
2023/09/10 00:59:44;;;;;;;3.28;3.08;;;;;;;;;;5030549;28;20041;-59
2023/09/10 01:02:12;;;;;;;3.65;3.35;;;;;;;;;;5030922;28;20053;-60
2023/09/10 01:04:38;;;;;;;4.43;4.13;;;;;;;;;;5028985;28;20041;-59
2023/09/10 01:07:04;;;;;;;4.22;3.83;;;;;;;;;;5030637;28;20041;-59
2023/09/10 01:09:30;;;;;;;3.78;3.47;;;;;;;;;;5031263;28;20053;-60
2023/09/10 01:11:58;;;;;;;4.03;3.72;;;;;;;;;;5029745;28;20107;-59
2023/09/10 01:14:27;;;;;;;4.45;4.05;;;;;;;;;;5029631;28;20484;-59
2023/09/10 01:17:16;;;;;;;3.97;3.67;;;;;;;;;;5027629;28;20034;-59
2023/09/10 01:19:42;;;;;;;4.35;4.05;;;;;;;;;;5025725;28;20057;-59
2023/09/10 01:22:17;;;;;;;4.13;3.78;;;;;;;;;;5029362;28;20424;-59
2023/09/10 01:24:50;;;;;;;3.45;3.25;;;;;;;;;;5028112;28;20044;-59
2023/09/10 01:27:17;;;;;;;3.72;3.42;;;;;;;;;;5027478;28;20583;-59
2023/09/10 01:29:43;;;;;;;4.25;3.88;;;;;;;;;;5026331;28;20046;-59
2023/09/10 01:32:12;;;;;;;5.03;4.63;;;;;;;;;;5026166;28;20545;-59
2023/09/10 01:34:41;;;;;;;5.07;4.68;;;;;;;;;;5027499;28;20064;-60
2023/09/10 01:37:22;;;;;;;5.20;4.80;;;;;;;;;;5026031;28;20061;-59
2023/09/10 01:39:49;;;;;;;5.38;4.97;;;;;;;;;;5024164;28;20045;-60
2023/09/10 01:42:16;;;;;;;5.00;4.60;;;;;;;;;;5027608;28;20505;-59
2023/09/10 01:44:42;;;;;;;4.85;4.45;;;;;;;;;;5027108;28;20041;-59
2023/09/10 01:47:08;;;;;;;4.72;4.32;;;;;;;;;;5025597;28;20180;-59
2023/09/10 01:49:35;;;;;;;4.70;4.38;;;;;;;;;;5027099;28;20731;-59
2023/09/10 01:52:01;;;;;;;4.65;4.25;;;;;;;;;;5027245;28;20037;-60
2023/09/10 01:54:27;;;;;;;4.22;3.92;;;;;;;;;;5026081;28;20095;-59
2023/09/10 01:56:53;;;;;;;4.65;4.25;;;;;;;;;;5026659;28;20041;-59
2023/09/10 01:59:19;;;;;;;3.97;3.67;;;;;;;;;;5027266;28;20053;-61
2023/09/10 02:01:45;;;;;;;3.83;3.55;;;;;;;;;;5025341;28;20064;-60
2023/09/10 02:04:11;;;;;;;3.40;3.20;;;;;;;;;;5026606;28;20499;-59
2023/09/10 02:06:37;;;;;;;3.13;2.92;;;;;;;;;;5025775;28;20049;-60
2023/09/10 02:09:03;;;;;;;3.58;3.28;;;;;;;;;;5026303;28;20052;-60
2023/09/10 02:11:29;;;;;;;3.95;3.65;;;;;;;;;;5026016;28;20041;-60
2023/09/10 02:13:55;;;;;;;3.28;3.08;;;;;;;;;;5024984;28;20044;-59
2023/09/10 02:16:21;;;;;;;2.85;2.65;;;;;;;;;;5027125;28;20493;-59
2023/09/10 02:18:47;;;;;;;3.90;3.60;;;;;;;;;;5026909;28;20042;-59
2023/09/10 02:21:13;;;;;;;3.20;3.00;;;;;;;;;;5024532;28;20069;-60
2023/09/10 02:23:44;;;;;;;3.67;3.38;;;;;;;;;;5026975;28;20429;-60
2023/09/10 02:26:10;;;;;;;2.85;2.65;;;;;;;;;;5027249;28;20045;-59
2023/09/10 02:28:36;;;;;;;3.15;2.95;;;;;;;;;;5025748;28;20045;-59
2023/09/10 02:31:08;;;;;;;2.85;2.65;;;;;;;;;;5027780;28;20040;-59
2023/09/10 02:33:34;;;;;;;;;;;;;;;;;;5027456;28;20092;-59
2023/09/10 02:36:00;;;;;;;2.90;2.70;;;;;;;;;;5026940;28;19939;-59
2023/09/10 02:38:27;;;;;;;2.67;2.47;;;;;;;;;;5026731;28;20037;-59
2023/09/10 02:40:53;;;;;;;3.08;2.78;;;;;;;;;;5027093;28;20124;-60
2023/09/10 02:43:19;;;;;;;3.10;2.88;;;;;;;;;;5026109;28;20557;-59
2023/09/10 02:45:45;;;;;;;2.90;2.70;;;;;;;;;;5027665;28;20124;-59
2023/09/10 02:48:11;;;;;;;3.25;3.05;;;;;;;;;;5027842;28;20529;-60
2023/09/10 02:50:37;;;;;;;2.45;2.25;;;;;;;;;;5027527;28;20045;-60
2023/09/10 02:53:03;;;;;;;2.88;2.67;;;;;;;;;;5026508;28;20056;-59
2023/09/10 02:55:29;;;;;;;2.88;2.67;;;;;;;;;;5026547;28;20489;-60
2023/09/10 02:57:55;;;;;;;3.00;2.80;;;;;;;;;;5025068;28;20045;-60
2023/09/10 03:00:25;;;;;;;2.55;2.35;;;;;;;;;;5026099;28;20091;-60
2023/09/10 03:02:55;;;;;;;2.80;2.60;;;;;;;;;;5023770;28;20042;-59
2023/09/10 03:05:21;;;;;;;2.58;2.38;;;;;;;;;;5025548;28;20033;-59
2023/09/10 03:07:47;;;;;;;2.67;2.47;;;;;;;;;;5022111;28;20099;-59
2023/09/10 03:10:13;;;;;;;2.17;1.98;;;;;;;;;;5024812;28;20489;-60
2023/09/10 03:12:39;;;;;;;2.17;2.00;;;;;;;;;;5024890;28;20040;-59
2023/09/10 03:15:06;;;;;;;2.78;2.58;;;;;;;;;;5025282;28;20559;-59
2023/09/10 03:17:32;;;;;;;2.60;2.40;;;;;;;;;;5024983;28;20075;-60
2023/09/10 03:19:58;;;;;;;3.08;2.88;;;;;;;;;;5025767;28;20037;-59
2023/09/10 03:22:24;;;;;;;2.70;2.50;;;;;;;;;;5026043;28;21172;-60
2023/09/10 03:24:50;;;;;;;2.88;2.67;;;;;;;;;;5023070;28;20052;-60
2023/09/10 03:27:16;;;;;;;3.20;3.00;;;;;;;;;;5024686;28;20041;-59
2023/09/10 03:29:42;;;;;;;3.28;2.97;;;;;;;;;;5025862;28;20405;-59
2023/09/10 03:32:08;;;;;;;2.90;2.70;;;;;;;;;;5024577;28;20099;-60
2023/09/10 03:34:34;;;;;;;2.83;2.63;;;;;;;;;;5025690;28;20045;-60
2023/09/10 03:37:03;;;;;;;2.88;2.67;;;;;;;;;;5025503;28;20037;-60
2023/09/10 03:39:29;;;;;;;2.88;2.67;;;;;;;;;;5023306;28;20050;-59
2023/09/10 03:41:55;;;;;;;3.10;2.90;;;;;;;;;;5023201;28;20037;-59
2023/09/10 03:44:21;;;;;;;3.05;2.85;;;;;;;;;;5024652;28;20077;-60
2023/09/10 03:46:47;;;;;;;3.83;3.55;;;;;;;;;;5024515;28;20091;-59
2023/09/10 03:49:13;;;;;;;4.15;3.85;;;;;;;;;;5024112;28;20537;-60
2023/09/10 03:51:40;;;;;;;2.72;2.53;;;;;;;;;;5025369;28;20064;-59
2023/09/10 03:54:11;;;;;;;2.92;2.72;;;;;;;;;;5023540;28;20037;-60
2023/09/10 03:56:37;;;;;;;2.88;2.67;;;;;;;;;;5025420;28;20042;-59
2023/09/10 03:59:03;;;;;;;3.28;3.08;;;;;;;;;;5023876;28;20049;-59
2023/09/10 04:01:29;;;;;;;2.65;2.45;;;;;;;;;;5020646;28;20064;-59
2023/09/10 04:03:56;;;;;;;2.83;2.63;;;;;;;;;;5024649;28;20045;-60
2023/09/10 04:06:22;;;;;;;2.88;2.67;;;;;;;;;;5020005;28;20088;-60
2023/09/10 04:08:48;;;;;;;2.70;2.50;;;;;;;;;;5024766;28;20033;-60
2023/09/10 04:11:14;;;;;;;3.03;2.83;;;;;;;;;;5024527;28;20099;-59
2023/09/10 04:13:40;;;;;;;3.00;2.80;;;;;;;;;;5024154;28;20762;-59
2023/09/10 04:16:06;;;;;;;2.47;2.35;;;;;;;;;;5024580;28;20077;-59
2023/09/10 04:18:34;;;;;;;2.83;2.63;;;;;;;;;;5025516;28;20132;-60
2023/09/10 04:21:03;;;;;;;2.60;2.40;;;;;;;;;;5024081;28;20095;-59
2023/09/10 04:23:29;;;;;;;2.15;2.03;;;;;;;;;;5024773;28;20045;-60
2023/09/10 04:25:55;;;;;;;3.10;2.90;;;;;;;;;;5024484;28;20037;-60
2023/09/10 04:28:21;;;;;;;3.28;3.03;;;;;;;;;;5024109;28;20691;-60
2023/09/10 04:30:47;;;;;;;2.90;2.70;;;;;;;;;;5024548;28;20490;-59
2023/09/10 04:33:16;;;;;;;2.60;2.40;;;;;;;;;;5023524;28;20038;-60
2023/09/10 04:35:48;;;;;;;2.42;2.22;;;;;;;;;;5023729;28;20085;-60
2023/09/10 04:38:14;;;;;;;;;;;;;;;;;;5024964;28;20732;-59
2023/09/10 04:40:41;;;;;;;3.10;2.80;;;;;;;;;;5024761;28;19921;-60
2023/09/10 04:43:07;;;;;;;2.50;2.30;;;;;;;;;;5023745;28;20053;-59
2023/09/10 04:45:33;;;;;;;2.15;1.95;;;;;;;;;;5022865;28;20115;-59
2023/09/10 04:47:59;;;;;;;2.22;2.13;;;;;;;;;;5022920;28;20465;-60
2023/09/10 04:50:25;;;;;;;2.10;2.00;;;;;;;;;;5024130;28;20495;-59
2023/09/10 04:52:52;;;;;;;2.58;2.20;;;;;;;;;;5024075;28;20039;-59
2023/09/10 04:55:18;;;;;;;2.45;2.25;;;;;;;;;;5024476;28;20068;-59
2023/09/10 04:57:46;;;;;;;1.80;1.70;;;;;;;;;;5023683;28;20077;-59
2023/09/10 05:00:12;;;;;;;2.60;2.40;;;;;;;;;;5024161;28;20122;-60
2023/09/10 05:02:38;;;;;;;1.88;1.77;;;;;;;;;;5023913;28;20077;-59
2023/09/10 05:05:05;;;;;;;1.92;1.83;;;;;;;;;;5026608;28;20037;-60
2023/09/10 05:07:31;;;;;;;1.60;1.50;;;;;;;;;;5027477;28;20038;-59
2023/09/10 05:09:57;;;;;;;1.70;1.60;;;;;;;;;;5026221;28;20087;-60
2023/09/10 05:12:23;;;;;;;1.70;1.60;;;;;;;;;;5026201;28;20046;-59
2023/09/10 05:14:49;;;;;;;1.90;1.80;;;;;;;;;;5027598;28;20106;-59
2023/09/10 05:17:15;;;;;;;1.50;1.40;;;;;;;;;;5024906;28;20120;-59
2023/09/10 05:19:42;;;;;;;1.42;1.33;;;;;;;;;;5024797;28;20382;-60
2023/09/10 05:22:09;;;;;;;1.60;1.50;;;;;;;;;;5029270;28;20107;-60
2023/09/10 05:24:35;;;;;;;1.50;1.40;;;;;;;;;;5030223;28;20057;-59
2023/09/10 05:27:01;;;;;;;1.48;1.38;;;;;;;;;;5028277;28;20041;-59
2023/09/10 05:29:28;;;;;;;1.35;1.25;;;;;;;;;;5028250;28;20044;-59
2023/09/10 05:31:54;;;;;;;1.48;1.38;;;;;;;;;;5026623;28;20045;-59
2023/09/10 05:34:20;;;;;;;1.55;1.45;;;;;;;;;;5027667;28;20068;-59
2023/09/10 05:36:48;;;;;;;1.67;1.58;;;;;;;;;;5023477;28;20037;-59
2023/09/10 05:39:14;;;;;;;1.60;1.50;;;;;;;;;;5026607;28;20045;-60
2023/09/10 05:41:40;;;;;;;1.40;1.30;;;;;;;;;;5027970;28;20042;-58
2023/09/10 05:44:06;;;;;;;1.50;1.40;;;;;;;;;;5027412;28;20037;-60
2023/09/10 05:46:33;;;;;;;1.20;1.10;;;;;;;;;;5025728;28;20489;-59
2023/09/10 05:48:59;;;;;;;1.77;1.20;;;;;;;;;;5024139;28;20708;-59
2023/09/10 05:51:25;;;;;;;1.38;1.27;;;;;;;;;;5027442;28;20083;-59
2023/09/10 05:53:51;;;;;;;1.30;1.20;;;;;;;;;;5027418;28;20037;-59
2023/09/10 05:56:17;;;;;;;1.33;1.23;;;;;;;;;;5028156;28;20057;-59
2023/09/10 05:58:43;;;;;;;1.02;1.02;;;;;;;;;;5027916;28;20436;-59
2023/09/10 06:01:09;;;;;;;1.10;1.10;;;;;;;;;;5027284;28;20037;-59
2023/09/10 06:03:35;;;;;;;1.33;1.23;;;;;;;;;;5028292;28;20033;-59
2023/09/10 06:06:01;;;;;;;1.50;1.40;;;;;;;;;;5027625;28;20037;-59
2023/09/10 06:08:29;;;;;;;1.40;1.30;;;;;;;;;;5026238;28;20482;-59
2023/09/10 06:10:55;;;;;;;1.00;1.00;;;;;;;;;;5027966;28;20037;-60
2023/09/10 06:13:21;;;;;;;1.50;1.40;;;;;;;;;;5026768;28;20527;-59
2023/09/10 06:15:47;;;;;;;1.10;1.10;;;;;;;;;;5026988;28;20545;-59
2023/09/10 06:18:13;;;;;;;1.00;0.90;;;;;;;;;;5027819;28;20045;-59
2023/09/10 06:20:39;;;;;;;1.67;1.58;;;;;;;;;;5027058;28;20046;-59
2023/09/10 06:23:05;;;;;;;1.35;1.25;;;;;;;;;;5027853;28;20041;-59
2023/09/10 06:25:32;;;;;;;1.50;1.40;;;;;;;;;;5026966;28;20189;-59
2023/09/10 06:27:59;;;;;;;1.25;1.23;;;;;;;;;;5026591;28;20442;-59
2023/09/10 06:30:25;;;;;;;1.40;1.30;;;;;;;;;;5027471;28;20049;-59
2023/09/10 06:32:51;;;;;;;1.08;1.05;;;;;;;;;;5027316;28;20037;-59
2023/09/10 06:35:17;;;;;;;0.88;0.88;;;;;;;;;;5026719;28;20068;-59
2023/09/10 06:37:43;;;;;;;1.05;1.05;;;;;;;;;;5026702;28;20055;-60
2023/09/10 06:40:09;;;;;;;2.03;1.92;;;;;;;;;;5027388;28;20121;-60
2023/09/10 06:42:35;;;;;;;1.60;1.50;;;;;;;;;;5027320;28;20049;-59
2023/09/10 06:45:01;;;;;;;1.58;1.48;;;;;;;;;;5027594;28;20041;-59
2023/09/10 06:47:27;;;;;;;3.30;3.00;;;;;;;;;;5023231;28;20107;-59
2023/09/10 06:49:54;;;;;;;1.80;1.70;;;;;;;;;;5023898;28;20064;-59
2023/09/10 06:52:20;;;;;;;2.50;2.30;;;;;;;;;;5026740;28;20044;-59
2023/09/10 06:54:47;;;;;;;2.60;2.40;;;;;;;;;;5026089;28;20038;-59
2023/09/10 06:57:13;;;;;;;2.08;1.98;;;;;;;;;;5025535;28;20382;-59
2023/09/10 06:59:39;;;;;;;1.88;1.77;;;;;;;;;;5026395;28;20034;-59
2023/09/10 07:02:05;;;;;;;1.30;1.20;;;;;;;;;;5022459;28;20041;-60
2023/09/10 07:04:32;;;;;;;1.75;1.65;;;;;;;;;;5027173;28;20445;-59
2023/09/10 07:06:58;;;;;;;1.35;1.20;;;;;;;;;;5025810;28;20044;-60
2023/09/10 07:09:24;;;;;;;1.83;1.73;;;;;;;;;;5025569;28;20873;-60
2023/09/10 07:11:51;;;;;;;2.50;2.30;;;;;;;;;;5026183;28;20029;-59
2023/09/10 07:14:17;;;;;;;3.03;2.83;;;;;;;;;;5025954;28;20048;-59
2023/09/10 07:16:43;;;;;;;2.90;2.70;;;;;;;;;;5024838;28;20037;-60
2023/09/10 07:19:09;;;;;;;3.40;3.10;;;;;;;;;;5022840;28;20091;-59
2023/09/10 07:21:35;;;;;;;3.78;3.47;;;;;;;;;;5024269;28;20432;-60
2023/09/10 07:24:06;;;;;;;4.10;3.80;;;;;;;;;;5024969;28;20037;-60
2023/09/10 07:26:32;;;;;;;4.55;4.15;;;;;;;;;;5026937;28;20055;-58
2023/09/10 07:28:58;;;;;;;5.03;4.63;;;;;;;;;;5025386;28;20041;-62
2023/09/10 07:31:24;;;;;;;4.78;4.38;;;;;;;;;;5025722;28;20044;-60
2023/09/10 07:33:50;;;;;;;3.97;3.67;;;;;;;;;;5026344;28;20111;-63
2023/09/10 07:36:16;;;;;;;4.85;4.45;;;;;;;;;;5025893;28;20049;-62
2023/09/10 07:38:42;;;;;;;4.47;4.10;;;;;;;;;;5025221;28;20049;-61
2023/09/10 07:41:08;;;;;;;4.70;4.30;;;;;;;;;;5022928;28;20095;-61
2023/09/10 07:43:34;;;;;;;3.92;3.63;;;;;;;;;;5023625;28;20048;-60
2023/09/10 07:46:00;;;;;;;3.20;3.00;;;;;;;;;;5020983;28;20041;-61
2023/09/10 07:48:26;;;;;;;4.78;4.40;;;;;;;;;;5025790;28;20053;-60
2023/09/10 07:50:56;;;;;;;4.38;4.07;;;;;;;;;;5025497;28;20045;-60
2023/09/10 07:53:22;;;;;;;6.07;5.57;;;;;;;;;;5024505;28;20091;-61
2023/09/10 07:55:49;;;;;;;4.55;4.25;;;;;;;;;;5020866;28;20047;-60
2023/09/10 07:58:15;;;;;;;5.82;5.32;;;;;;;;;;5024465;28;20041;-60
2023/09/10 08:00:41;;;;;;;4.03;3.72;;;;;;;;;;5018904;28;20041;-60
2023/09/10 08:03:07;;;;;;;2.83;2.63;;;;;;;;;;5024721;28;20557;-60
2023/09/10 08:05:34;;;;;;;5.63;5.22;;;;;;;;;;5023777;28;20128;-60
2023/09/10 08:08:03;;;;;;;5.82;5.32;;;;;;;;;;5023028;28;20073;-60
2023/09/10 08:10:32;;;;;;;4.70;4.32;;;;;;;;;;5021088;28;20100;-60
2023/09/10 08:12:58;;;;;;;5.63;5.13;;;;;;;;;;5024089;28;20077;-61
2023/09/10 08:15:25;;;;;;;4.10;3.80;;;;;;;;;;5022231;28;20037;-61
2023/09/10 08:17:56;;;;;;;6.80;6.20;;;;;;;;;;5025139;28;20051;-60
2023/09/10 08:20:22;;;;;;;6.13;5.63;;;;;;;;;;5021750;28;20302;-60
2023/09/10 08:22:48;;;;;;;5.88;5.38;;;;;;;;;;5024866;28;20038;-60
2023/09/10 08:25:15;;;;;;;4.93;4.53;;;;;;;;;;5024802;28;20052;-60
2023/09/10 08:27:41;;;;;;;4.95;4.57;;;;;;;;;;5024152;28;20044;-60
2023/09/10 08:30:08;;;;;;;8.27;7.47;;;;;;;;;;5025355;28;20042;-63
2023/09/10 08:32:35;;;;;;;10.45;9.55;;;;;;;;;;5024606;28;20055;-60
2023/09/10 08:35:01;;;;;;;7.97;7.28;;;;;;;;;;5022617;28;20041;-60
2023/09/10 08:37:27;;;;;;;6.15;5.65;;;;;;;;;;5019885;28;20045;-60
2023/09/10 08:39:53;;;;;;;4.63;4.32;;;;;;;;;;5025039;28;20041;-60
2023/09/10 08:42:39;;;;;;;4.82;4.43;;;;;;;;;;5028345;28;20065;-60
2023/09/10 08:45:09;;;;;;;6.32;5.75;;;;;;;;;;5029447;28;20045;-61
2023/09/10 08:47:39;;;;;;;8.80;8.00;;;;;;;;;;5028510;28;20093;-60
2023/09/10 08:50:14;;;;;;;8.10;7.40;;;;;;;;;;5029144;28;20497;-60
2023/09/10 08:52:42;;;;;;;5.30;4.90;;;;;;;;;;5028604;28;20560;-60
2023/09/10 08:55:08;;;;;;;5.55;5.13;;;;;;;;;;5028092;28;20049;-60
2023/09/10 08:57:37;;;;;;;4.93;4.55;;;;;;;;;;5029433;28;20041;-60
2023/09/10 09:00:07;;;;;;;3.90;3.60;;;;;;;;;;5028780;28;20099;-60
2023/09/10 09:02:33;;;;;;;3.88;3.58;;;;;;;;;;5028349;28;20047;-60
2023/09/10 09:04:59;;;;;;;6.07;5.68;;;;;;;;;;5027048;28;20037;-60
2023/09/10 09:07:27;;;;;;;5.43;5.03;;;;;;;;;;5027682;28;20143;-60
2023/09/10 09:09:54;;;;;;;5.22;4.85;;;;;;;;;;5025602;28;20045;-60
2023/09/10 09:12:20;;;;;;;4.50;4.10;;;;;;;;;;5026960;28;20053;-60
2023/09/10 09:14:47;;;;;;;5.55;5.15;;;;;;;;;;5028380;28;20041;-60
2023/09/10 09:17:14;;;;;;;5.47;4.97;;;;;;;;;;5027033;28;20145;-60
2023/09/10 09:19:43;;;;;;;6.47;5.97;;;;;;;;;;5023283;28;20095;-60
2023/09/10 09:22:10;;;;;;;4.35;4.05;;;;;;;;;;5027264;28;20480;-60
2023/09/10 09:24:36;;;;;;;4.53;4.22;;;;;;;;;;5028086;28;20107;-60
2023/09/10 09:27:03;;;;;;;5.68;5.20;;;;;;;;;;5027802;28;20052;-61
2023/09/10 09:29:29;;;;;;;4.63;4.32;;;;;;;;;;5028133;28;20116;-60
2023/09/10 09:31:55;;;;;;;3.47;3.28;;;;;;;;;;5027223;28;20117;-61
2023/09/10 09:34:21;;;;;;;4.43;4.13;;;;;;;;;;5027761;28;20073;-61
2023/09/10 09:36:51;;;;;;;5.07;4.68;;;;;;;;;;5027813;28;20038;-60
2023/09/10 09:39:18;;;;;;;5.53;5.13;;;;;;;;;;5027884;28;20424;-61
2023/09/10 09:41:50;;;;;;;5.40;5.00;;;;;;;;;;5025650;28;20045;-61
2023/09/10 09:44:16;;;;;;;4.30;3.90;;;;;;;;;;5027270;28;20080;-61
2023/09/10 09:46:42;;;;;;;3.20;3.00;;;;;;;;;;5025085;28;20064;-61
2023/09/10 09:49:09;;;;;;;5.13;4.72;;;;;;;;;;5027826;28;20116;-60
2023/09/10 09:51:35;;;;;;;5.18;4.78;;;;;;;;;;5026983;28;20504;-60
2023/09/10 09:54:01;;;;;;;3.30;3.10;;;;;;;;;;5027764;28;20558;-60
2023/09/10 09:56:27;;;;;;;4.25;3.95;;;;;;;;;;5027997;28;20033;-60
2023/09/10 09:58:58;;;;;;;5.05;4.65;;;;;;;;;;5026559;28;20073;-60
2023/09/10 10:01:24;;;;;;;5.00;4.60;;;;;;;;;;5027088;28;20111;-61
2023/09/10 10:03:50;;;;;;;6.40;5.90;;;;;;;;;;5027940;28;20513;-61
2023/09/10 10:06:17;;;;;;;5.80;5.40;;;;;;;;;;5027138;28;20037;-60
2023/09/10 10:08:48;;;;;;;4.28;3.97;;;;;;;;;;5027040;28;20095;-60
2023/09/10 10:11:14;;;;;;;3.78;3.58;;;;;;;;;;5025931;28;20048;-60
2023/09/10 10:13:40;;;;;;;4.05;3.75;;;;;;;;;;5026679;28;20565;-61
2023/09/10 10:16:06;;;;;;;4.32;3.92;;;;;;;;;;5014431;28;20041;-60
2023/09/10 10:18:33;;;;;;;5.05;4.68;;;;;;;;;;5017621;28;20184;-61
2023/09/10 10:20:59;;;;;;;4.40;4.10;;;;;;;;;;5018072;28;20026;-61
2023/09/10 10:23:26;;;;;;;4.60;4.30;;;;;;;;;;5020879;28;20048;-61
2023/09/10 10:25:52;;;;;;;4.82;4.53;;;;;;;;;;5023501;28;20482;-61
2023/09/10 10:28:19;;;;;;;4.20;3.90;;;;;;;;;;5021605;28;20054;-61
2023/09/10 10:31:04;;;;;;;4.30;4.03;;;;;;;;;;5023884;28;20037;-61
2023/09/10 10:33:31;;;;;;;3.70;3.50;;;;;;;;;;5020796;28;20049;-61
2023/09/10 10:36:24;;;;;;;4.20;3.90;;;;;;;;;;5025758;28;20033;-61
2023/09/10 10:38:52;;;;;;;3.40;3.20;;;;;;;;;;5024615;28;20138;-60
2023/09/10 10:41:20;;;;;;;3.80;3.50;;;;;;;;;;5024064;28;20042;-61
2023/09/10 10:44:05;;;;;;;3.00;2.80;;;;;;;;;;5026230;28;20095;-61
2023/09/10 10:46:32;;;;;;;4.70;4.40;;;;;;;;;;5023968;28;20041;-61
2023/09/10 10:48:59;;;;;;;5.22;4.78;;;;;;;;;;5021681;28;20498;-61
2023/09/10 10:51:26;;;;;;;3.67;3.38;;;;;;;;;;5024158;28;20102;-61
2023/09/10 10:53:52;;;;;;;4.28;3.97;;;;;;;;;;5018243;28;20616;-61
2023/09/10 10:56:19;;;;;;;4.00;3.70;;;;;;;;;;5024019;28;20041;-61
2023/09/10 10:58:45;;;;;;;3.53;3.33;;;;;;;;;;5022838;28;20045;-61
2023/09/10 11:01:12;;;;;;;3.97;3.67;;;;;;;;;;5022103;28;20034;-61
2023/09/10 11:03:38;;;;;;;3.95;3.65;;;;;;;;;;5021411;28;20103;-61
2023/09/10 11:06:05;;;;;;;2.80;2.63;;;;;;;;;;5023684;28;20568;-61
2023/09/10 11:08:36;;;;;;;2.80;2.60;;;;;;;;;;5018970;28;20078;-61
2023/09/10 11:11:03;;;;;;;3.30;3.10;;;;;;;;;;5021411;28;20080;-61
2023/09/10 11:13:30;;;;;;;2.75;2.55;;;;;;;;;;5021754;28;20343;-62
2023/09/10 11:16:06;;;;;;;2.80;2.60;;;;;;;;;;5023781;28;20044;-61
2023/09/10 11:18:38;;;;;;;3.03;2.83;;;;;;;;;;5024557;28;20088;-61
2023/09/10 11:21:14;;;;;;;2.30;2.20;;;;;;;;;;5025018;28;20041;-61
2023/09/10 11:24:01;;;;;;;2.60;2.40;;;;;;;;;;5025394;28;20038;-61
2023/09/10 11:26:27;;;;;;;3.72;3.47;;;;;;;;;;5024882;28;20095;-61
2023/09/10 11:28:54;;;;;;;3.53;3.25;;;;;;;;;;5025925;28;20041;-61
2023/09/10 11:31:37;;;;;;;3.15;2.95;;;;;;;;;;5025113;28;20064;-61
2023/09/10 11:34:27;;;;;;;2.95;2.63;;;;;;;;;;5025253;28;20112;-61
2023/09/10 11:37:02;;;;;;;1.77;1.67;;;;;;;;;;5023281;28;20411;-61
2023/09/10 11:39:29;;;;;;;2.10;2.00;;;;;;;;;;5021924;28;20056;-61
2023/09/10 11:41:57;;;;;;;2.83;2.53;;;;;;;;;;5025018;28;20136;-61
2023/09/10 11:44:24;;;;;;;2.72;2.50;;;;;;;;;;5016450;28;20116;-59
2023/09/10 11:46:53;;;;;;;4.13;3.40;;;;;;;;;;5024559;28;20044;-66
2023/09/10 11:49:20;;;;;;;3.10;2.90;;;;;;;;;;5024795;28;20559;-60
2023/09/10 11:51:50;;;;;;;2.92;2.72;;;;;;;;;;5018165;28;20136;-60
2023/09/10 11:54:17;;;;;;;3.75;3.50;;;;;;;;;;5023671;28;20114;-63
2023/09/10 11:56:44;;;;;;;3.60;3.30;;;;;;;;;;5024781;28;20732;-61
2023/09/10 11:59:10;;;;;;;3.00;2.80;;;;;;;;;;5020494;28;20136;-62
2023/09/10 12:01:36;;;;;;;3.60;3.30;;;;;;;;;;5023645;28;20171;-61
2023/09/10 12:04:02;;;;;;;3.17;2.97;;;;;;;;;;5024759;28;20472;-61
2023/09/10 12:06:28;;;;;;;3.50;3.20;;;;;;;;;;5021725;28;20192;-61
2023/09/10 12:08:54;;;;;;;2.67;2.47;;;;;;;;;;5024396;28;20044;-61
2023/09/10 12:11:21;;;;;;;2.80;2.28;;;;;;;;;;5023711;28;20768;-61
2023/09/10 12:13:47;;;;;;;2.63;2.42;;;;;;;;;;5023780;28;20644;-61
2023/09/10 12:16:13;;;;;;;2.60;2.40;;;;;;;;;;5023780;28;20049;-62
2023/09/10 12:18:39;;;;;;;2.70;2.50;;;;;;;;;;5024766;28;20515;-61
2023/09/10 12:21:06;;;;;;;2.90;2.58;;;;;;;;;;5023406;28;20069;-61
2023/09/10 12:23:32;;;;;;;2.25;2.15;;;;;;;;;;5024966;28;20049;-61
2023/09/10 12:25:59;;;;;;;3.22;3.03;;;;;;;;;;5024318;28;20076;-61
2023/09/10 12:28:25;;;;;;;3.03;2.83;;;;;;;;;;5024667;28;20039;-61
2023/09/10 12:30:51;;;;;;;2.90;2.58;;;;;;;;;;5023021;28;20038;-61
2023/09/10 12:33:20;;;;;;;3.28;3.08;;;;;;;;;;5021370;28;20041;-61
2023/09/10 12:35:46;;;;;;;3.17;2.88;;;;;;;;;;5025589;28;20493;-61
2023/09/10 12:38:16;;;;;;;2.60;2.40;;;;;;;;;;5024686;28;20213;-61
2023/09/10 12:40:42;;;;;;;3.00;2.70;;;;;;;;;;5024055;28;20143;-61
2023/09/10 12:43:08;;;;;;;3.58;3.28;;;;;;;;;;5025016;28;20049;-61
2023/09/10 12:45:35;;;;;;;2.78;2.67;;;;;;;;;;5024750;28;20033;-61
2023/09/10 12:48:01;;;;;;;3.60;3.30;;;;;;;;;;5023412;28;20057;-61
2023/09/10 12:50:27;;;;;;;4.05;3.15;;;;;;;;;;5023812;28;20758;-61
2023/09/10 12:52:56;;;;;;;3.10;2.67;;;;;;;;;;5024363;28;20072;-61
2023/09/10 12:55:23;;;;;;;2.67;2.47;;;;;;;;;;5020852;28;20037;-61
2023/09/10 12:57:55;;;;;;;2.50;2.30;;;;;;;;;;5025358;28;20520;-62
2023/09/10 13:00:22;;;;;;;3.35;2.63;;;;;;;;;;5017529;28;20037;-62
2023/09/10 13:02:48;;;;;;;2.50;2.30;;;;;;;;;;5024554;28;20041;-60
2023/09/10 13:05:15;;;;;;;2.30;2.10;;;;;;;;;;5025600;28;20052;-60
2023/09/10 13:07:45;;;;;;;3.50;2.60;;;;;;;;;;5017617;28;20398;-62
2023/09/10 13:10:12;;;;;;;2.60;2.40;;;;;;;;;;5024639;28;20044;-65
2023/09/10 13:12:38;;;;;;;2.80;2.53;;;;;;;;;;5024907;28;20409;-62
2023/09/10 13:15:05;;;;;;;2.28;2.17;;;;;;;;;;5016228;28;20041;-62
2023/09/10 13:17:31;;;;;;;2.70;2.50;;;;;;;;;;5021529;28;20041;-62
2023/09/10 13:19:57;;;;;;;2.60;2.38;;;;;;;;;;5019590;28;20037;-61
2023/09/10 13:22:23;;;;;;;3.38;3.08;;;;;;;;;;5016648;28;20090;-61
2023/09/10 13:24:49;;;;;;;2.58;2.38;;;;;;;;;;5022954;28;20577;-61
2023/09/10 13:27:16;;;;;;;2.45;2.25;;;;;;;;;;5027469;28;20047;-61
2023/09/10 13:29:43;;;;;;;2.45;2.35;;;;;;;;;;5026794;28;20114;-61
2023/09/10 13:32:09;;;;;;;3.38;2.72;;;;;;;;;;5027748;28;20676;-66
2023/09/10 13:34:35;;;;;;;3.13;2.88;;;;;;;;;;5027980;28;20374;-61
2023/09/10 13:37:04;;;;;;;3.13;2.90;;;;;;;;;;5027489;28;20442;-61
2023/09/10 13:39:31;;;;;;;3.45;3.17;;;;;;;;;;5027872;28;20046;-61
2023/09/10 13:41:57;;;;;;;6.15;3.38;;;;;;;;;;5027295;28;20052;-61
2023/09/10 13:44:23;;;;;;;4.57;3.40;;;;;;;;;;5026237;28;20085;-61
2023/09/10 13:46:50;;;;;;;3.65;3.35;;;;;;;;;;5025211;28;20041;-62
2023/09/10 13:49:16;;;;;;;2.72;2.53;;;;;;;;;;5027282;28;20062;-62
2023/09/10 13:51:42;;;;;;;3.03;2.70;;;;;;;;;;5026826;28;20090;-62
2023/09/10 13:54:09;;;;;;;3.05;2.85;;;;;;;;;;5026819;28;20498;-62
2023/09/10 13:56:35;;;;;;;2.97;2.67;;;;;;;;;;5027320;28;20551;-62
2023/09/10 13:59:02;;;;;;;2.58;2.42;;;;;;;;;;5026224;28;20037;-62
2023/09/10 14:01:28;;;;;;;4.25;2.47;;;;;;;;;;5027505;28;20041;-62
2023/09/10 14:03:55;;;;;;;4.55;2.60;;;;;;;;;;5027285;28;20130;-62
2023/09/10 14:06:21;;;;;;;4.68;3.40;;;;;;;;;;5025760;28;20473;-62
2023/09/10 14:08:47;;;;;;;2.78;2.58;;;;;;;;;;5027464;28;20049;-62
2023/09/10 14:11:13;;;;;;;2.75;2.55;;;;;;;;;;5025891;28;20049;-62
2023/09/10 14:13:39;;;;;;;3.08;2.88;;;;;;;;;;5027489;28;20052;-62
2023/09/10 14:16:05;;;;;;;2.85;2.65;;;;;;;;;;5026856;28;20037;-62
2023/09/10 14:18:32;;;;;;;3.60;2.63;;;;;;;;;;5025850;28;20112;-62
2023/09/10 14:20:58;;;;;;;2.30;2.10;;;;;;;;;;5025863;28;20057;-63
2023/09/10 14:23:27;;;;;;;3.15;2.20;;;;;;;;;;5027160;28;20034;-66
2023/09/10 14:25:53;;;;;;;2.03;1.90;;;;;;;;;;5019203;28;20065;-60
2023/09/10 14:28:19;;;;;;;3.05;2.78;;;;;;;;;;5025609;28;20488;-60
2023/09/10 14:30:45;;;;;;;5.18;3.50;;;;;;;;;;5027465;28;20029;-60
2023/09/10 14:33:12;;;;;;;2.97;2.78;;;;;;;;;;5021160;28;20041;-61
2023/09/10 14:35:38;;;;;;;2.70;2.50;;;;;;;;;;5027949;28;20056;-61
2023/09/10 14:38:04;;;;;;;2.72;2.53;;;;;;;;;;5026871;28;20121;-61
2023/09/10 14:40:30;;;;;;;3.90;3.17;;;;;;;;;;5021148;28;20038;-61
2023/09/10 14:42:56;;;;;;;3.40;2.50;;;;;;;;;;5026690;28;20045;-60